Time;durP1;ratioP1;P1;durP2;ratioP2;P2;SDS_P1;SDS_P2;PMS_P1;PMS_P2;Temp;Humidity;BMP_temperature;BMP_pressure;BME280_temperature;BME280_humidity;BME280_pressure;Samples;Min_cycle;Max_cycle;Signal;HPM_P1;HPM_P2
2023/01/04 00:02:22;;;;;;;9.40;6.77;;;;;;;8.77;57.20;100068.75;6947499;28;20300;-80
2023/01/04 00:05:45;;;;;;;7.90;7.10;;;;;;;8.84;57.67;100070.59;6947116;28;20813;-79
2023/01/04 00:09:07;;;;;;;8.60;7.00;;;;;;;8.76;57.55;100085.88;6946042;28;20232;-79
2023/01/04 00:12:28;;;;;;;8.57;6.87;;;;;;;8.67;57.25;100049.22;6947096;28;20278;-79
2023/01/04 00:15:50;;;;;;;9.73;7.83;;;;;;;8.69;57.42;100068.72;6947240;28;20259;-79
2023/01/04 00:19:11;;;;;;;8.53;6.80;;;;;;;8.76;57.38;100062.53;6937033;28;20221;-80
2023/01/04 00:22:35;;;;;;;11.60;7.97;;;;;;;8.73;57.34;100052.06;6918410;28;20791;-80
2023/01/04 00:25:56;;;;;;;8.57;7.00;;;;;;;8.67;57.33;100046.53;6919473;28;20302;-80
2023/01/04 00:29:20;;;;;;;7.97;6.90;;;;;;;8.72;57.46;100058.47;6917701;28;20268;-80
2023/01/04 00:32:41;;;;;;;9.53;7.33;;;;;;;8.83;57.22;100046.59;6919027;28;20277;-79
2023/01/04 00:36:04;;;;;;;9.17;7.93;;;;;;;8.40;58.38;100038.69;6922304;28;20210;-80
2023/01/04 00:39:28;;;;;;;10.33;7.63;;;;;;;8.73;57.80;100030.56;6939030;28;20257;-79
2023/01/04 00:42:49;;;;;;;9.33;7.47;;;;;;;8.69;58.17;100012.25;6919051;28;20207;-79
2023/01/04 00:46:11;;;;;;;8.73;7.83;;;;;;;8.90;57.50;100002.72;6918277;28;20286;-79
2023/01/04 00:49:32;;;;;;;9.50;7.20;;;;;;;8.84;57.56;99999.88;6919150;28;20236;-79
2023/01/04 00:52:54;;;;;;;7.03;6.33;;;;;;;8.83;57.60;100000.88;6919469;28;20350;-79
2023/01/04 00:56:17;;;;;;;6.90;6.20;;;;;;;8.38;56.21;99888.34;6918391;28;20260;-79
2023/01/04 00:59:38;;;;;;;7.13;6.43;;;;;;;8.91;56.72;99998.19;6918969;28;20276;-79
2023/01/04 01:03:00;;;;;;;6.63;6.00;;;;;;;8.76;56.78;99998.00;6918846;28;20281;-79
2023/01/04 01:06:22;;;;;;;8.07;7.10;;;;;;;8.34;57.93;99991.81;6918188;28;20605;-80
2023/01/04 01:09:43;;;;;;;7.90;6.53;;;;;;;8.32;59.40;99998.34;6918371;28;20267;-79
2023/01/04 01:13:06;;;;;;;10.23;6.90;;;;;;;8.57;58.17;99990.22;6918825;28;20734;-79
2023/01/04 01:16:28;;;;;;;8.07;6.47;;;;;;;8.77;57.53;100009.59;6918596;28;20231;-79
2023/01/04 01:19:49;;;;;;;6.80;6.20;;;;;;;8.97;57.35;100003.75;6931830;28;20270;-79
2023/01/04 01:23:12;;;;;;;7.07;6.13;;;;;;;9.01;57.04;100005.09;6945628;28;20281;-79
2023/01/04 01:26:34;;;;;;;9.33;6.63;;;;;;;8.84;56.03;99991.78;6945212;28;20256;-79
2023/01/04 01:29:57;;;;;;;7.50;6.50;;;;;;;8.49;56.31;99998.22;6929468;28;20260;-79
2023/01/04 01:33:18;;;;;;;8.90;7.03;;;;;;;8.13;57.42;100010.16;6917856;28;20662;-80
2023/01/04 01:36:40;;;;;;;7.47;6.70;;;;;;;8.01;58.37;100007.91;6925503;28;20683;-79
2023/01/04 01:40:01;;;;;;;9.40;7.20;;;;;;;7.91;59.94;100010.69;6944368;28;20258;-79
2023/01/04 01:43:44;;;;;;;9.93;6.37;;;;;;;8.51;58.08;100008.84;6945752;28;20190;-79
2023/01/04 01:47:12;;;;;;;9.40;6.60;;;;;;;8.62;57.46;100011.22;6948713;28;20278;-79
2023/01/04 01:50:37;;;;;;;6.90;6.20;;;;;;;8.36;56.74;100013.16;6950389;28;20301;-79
2023/01/04 01:54:07;;;;;;;7.90;6.67;;;;;;;7.82;57.67;100025.09;6950159;28;20285;-79
2023/01/04 01:57:32;;;;;;;8.73;7.93;;;;;;;7.57;58.64;99993.72;6949271;28;20225;-79
2023/01/04 02:00:53;;;;;;;8.80;7.83;;;;;;;7.77;57.88;100019.34;6950069;28;20676;-79
2023/01/04 02:04:17;;;;;;;8.90;7.80;;;;;;;7.80;57.72;100011.00;6950333;28;20217;-79
2023/01/04 02:07:38;;;;;;;8.13;7.20;;;;;;;7.41;57.49;99982.84;6948986;28;20261;-79
2023/01/04 02:11:00;;;;;;;7.63;6.83;;;;;;;7.67;58.18;100018.59;6947645;28;20234;-79
2023/01/04 02:14:27;;;;;;;8.03;7.23;;;;;;;7.31;59.08;100014.28;6948980;28;20264;-79
2023/01/04 02:17:54;;;;;;;8.77;7.43;;;;;;;7.01;60.10;100012.00;6948237;28;20367;-79
2023/01/04 02:21:23;;;;;;;7.97;7.17;;;;;;;7.11;60.44;100007.44;6947797;28;20193;-80
2023/01/04 02:24:58;;;;;;;9.53;7.90;;;;;;;7.34;59.47;100011.31;6945884;28;20209;-79
2023/01/04 02:28:28;;;;;;;7.97;6.80;;;;;;;7.82;58.83;100005.44;6944642;28;20235;-79
2023/01/04 02:31:51;;;;;;;7.87;7.07;;;;;;;7.70;57.88;99999.50;6949251;28;20295;-80
2023/01/04 02:35:19;;;;;;;9.97;7.17;;;;;;;7.43;57.90;99983.53;6948936;28;20681;-80
2023/01/04 02:38:49;;;;;;;7.33;6.63;;;;;;;7.65;57.82;99990.22;6948230;28;20223;-79
2023/01/04 02:42:16;;;;;;;8.03;6.80;;;;;;;7.62;57.99;99980.69;6948865;28;20268;-79
2023/01/04 02:45:40;;;;;;;6.50;5.90;;;;;;;7.28;59.23;99955.59;6949618;28;20314;-79
2023/01/04 02:52:42;;;;;;;6.50;5.90;;;;;;;7.34;58.50;99940.72;6951510;28;20284;-79
2023/01/04 02:56:11;;;;;;;8.30;6.93;;;;;;;7.54;57.99;99947.56;6950702;28;20272;-80
2023/01/04 02:59:43;;;;;;;9.43;7.73;;;;;;;7.43;57.96;99970.13;6952065;28;20316;-80
2023/01/04 03:07:02;;;;;;;7.80;7.00;;;;;;;7.45;57.86;99954.72;6947527;28;20707;-79
2023/01/04 03:10:31;;;;;;;7.50;6.70;;;;;;;7.34;58.10;99959.50;6948335;28;20218;-80
2023/01/04 03:13:53;;;;;;;9.40;7.13;;;;;;;6.68;58.82;99937.66;6945716;28;20767;-80
2023/01/04 03:17:16;;;;;;;8.37;7.00;;;;;;;7.13;58.75;99959.84;6946986;28;20225;-80
2023/01/04 03:20:37;;;;;;;7.23;6.53;;;;;;;7.15;59.56;99946.28;6947594;28;20210;-79
2023/01/04 03:49:56;;;;;;;8.60;7.70;;;;;;;6.77;59.63;99891.16;6944765;28;20231;-79
2023/01/04 03:53:18;;;;;;;8.83;7.93;;;;;;;6.63;59.67;99899.78;6944233;28;20211;-79
2023/01/04 03:56:42;;;;;;;8.90;7.13;;;;;;;6.44;60.06;99917.81;6945338;28;20301;-80
2023/01/04 04:00:09;;;;;;;10.10;8.33;;;;;;;6.22;60.83;99894.16;6946658;28;20209;-80
2023/01/04 04:10:49;;;;;;;8.30;7.50;;;;;;;7.05;59.67;99902.59;6946533;28;20272;-79
2023/01/04 04:14:11;;;;;;;8.17;7.37;;;;;;;5.96;59.62;99911.94;6946260;28;20275;-80
2023/01/04 04:17:34;;;;;;;9.70;7.37;;;;;;;6.06;60.31;99915.38;6945858;28;20321;-79
2023/01/04 04:20:57;;;;;;;9.63;7.53;;;;;;;6.48;60.40;99906.63;6919812;28;20215;-79
2023/01/04 04:24:21;;;;;;;9.57;7.67;;;;;;;6.37;59.49;99908.72;6918618;28;20212;-80
2023/01/04 04:27:43;;;;;;;9.00;8.10;;;;;;;6.56;60.18;99900.53;6918249;28;20274;-79
2023/01/04 04:31:05;;;;;;;9.60;8.13;;;;;;;6.48;60.13;99895.94;6918515;28;20295;-79
2023/01/04 04:34:27;;;;;;;10.27;7.20;;;;;;;6.16;61.04;99900.97;6919271;28;20211;-80
2023/01/04 04:37:49;;;;;;;8.90;7.57;;;;;;;6.14;61.39;99888.72;6918170;28;20257;-80
2023/01/04 04:44:51;;;;;;;17.53;13.83;;;;;;;6.86;60.75;99878.69;6946353;28;20215;-80
2023/01/04 04:48:13;;;;;;;11.20;10.00;;;;;;;6.81;60.31;99892.56;6945768;28;20368;-79
2023/01/04 04:51:36;;;;;;;8.23;7.43;;;;;;;6.43;60.75;99897.41;6946067;28;20772;-80
2023/01/04 04:54:57;;;;;;;8.70;7.60;;;;;;;6.82;61.29;99890.69;6945600;28;20349;-79
2023/01/04 04:58:19;;;;;;;8.33;7.33;;;;;;;7.18;60.31;99895.03;6945019;28;20219;-79
2023/01/04 05:01:41;;;;;;;8.70;7.60;;;;;;;7.49;58.45;99885.47;6945583;28;20637;-79
2023/01/04 05:05:02;;;;;;;9.43;7.33;;;;;;;7.18;58.30;99858.31;6945730;28;20293;-80
2023/01/04 05:08:25;;;;;;;8.27;7.13;;;;;;;7.02;59.10;99846.63;6944892;28;20708;-79
2023/01/04 05:15:27;;;;;;;8.13;6.87;;;;;;;6.35;59.67;99833.00;6943139;28;20209;-79
2023/01/04 05:18:48;;;;;;;8.80;7.13;;;;;;;5.94;60.46;99780.06;6943942;28;20252;-79
2023/01/04 05:22:10;;;;;;;8.03;7.00;;;;;;;6.13;61.98;99866.44;6940069;28;20208;-79
2023/01/04 05:25:33;;;;;;;8.50;7.60;;;;;;;6.87;61.64;99873.16;6922649;28;20294;-80
2023/01/04 05:28:54;;;;;;;9.47;7.80;;;;;;;6.98;60.86;99870.25;6935910;28;20228;-79
2023/01/04 05:32:15;;;;;;;9.90;8.17;;;;;;;7.10;60.19;99868.13;6949000;28;20314;-79
2023/01/04 05:35:37;;;;;;;9.87;8.30;;;;;;;6.94;60.83;99865.31;6950003;28;20240;-79
2023/01/04 05:38:58;;;;;;;8.80;7.90;;;;;;;7.02;60.76;99857.34;6949729;28;20227;-80
2023/01/04 05:42:27;;;;;;;7.90;7.10;;;;;;;6.36;62.77;99862.31;6944384;28;20206;-80
2023/01/04 05:45:50;;;;;;;7.70;6.87;;;;;;;7.21;60.80;99857.16;6922556;28;20196;-80
2023/01/04 05:49:12;;;;;;;9.00;7.00;;;;;;;7.64;60.25;99863.25;6921804;28;20279;-80
2023/01/04 05:52:33;;;;;;;7.20;6.50;;;;;;;7.84;58.77;99850.41;6922280;28;20319;-79
2023/01/04 05:55:55;;;;;;;8.53;7.40;;;;;;;7.35;59.08;99843.97;6923120;28;20242;-76
2023/01/04 05:59:18;;;;;;;8.60;6.87;;;;;;;7.15;60.31;99841.69;6930167;28;20327;-82
2023/01/04 06:02:40;;;;;;;10.07;7.20;;;;;;;6.83;61.96;99860.25;6951234;28;20368;-76
2023/01/04 06:06:02;;;;;;;8.10;7.03;;;;;;;7.61;60.74;99860.88;6945661;28;20231;-77
2023/01/04 06:09:26;;;;;;;9.13;6.93;;;;;;;7.75;59.79;99846.88;6948767;28;20237;-78
2023/01/04 06:12:47;;;;;;;8.03;6.57;;;;;;;7.36;60.12;99847.53;6945925;28;20203;-78
2023/01/04 06:16:10;;;;;;;9.17;6.87;;;;;;;7.62;60.29;99851.00;6947389;28;20206;-78
2023/01/04 06:19:32;;;;;;;7.63;6.83;;;;;;;7.79;59.97;99834.78;6947768;28;20313;-78
2023/01/04 06:22:54;;;;;;;9.07;7.30;;;;;;;7.89;59.03;99851.59;6944072;28;20622;-77
2023/01/04 06:26:15;;;;;;;10.10;8.07;;;;;;;7.06;60.96;99831.91;6947603;28;20243;-77
2023/01/04 06:29:37;;;;;;;8.73;7.43;;;;;;;7.14;62.10;99802.47;6947446;28;20310;-77
2023/01/04 06:32:59;;;;;;;9.90;8.10;;;;;;;7.86;60.11;99838.53;6946971;28;20265;-77
2023/01/04 06:36:21;;;;;;;10.53;7.97;;;;;;;7.42;61.00;99825.41;6947390;28;20678;-77
2023/01/04 06:39:42;;;;;;;10.93;8.40;;;;;;;7.69;60.83;99836.78;6948237;28;20298;-77
2023/01/04 06:43:04;;;;;;;10.30;7.87;;;;;;;7.79;60.13;99815.97;6942712;28;20894;-77
2023/01/04 06:46:26;;;;;;;8.53;7.67;;;;;;;7.35;60.89;99838.63;6919967;28;20277;-77
2023/01/04 06:49:48;;;;;;;8.77;7.10;;;;;;;8.26;59.73;99827.88;6924579;28;20364;-79
2023/01/04 06:53:10;;;;;;;9.90;8.10;;;;;;;8.22;59.42;99813.13;6948112;28;20279;-78
2023/01/04 06:56:50;;;;;;;7.73;6.93;;;;;;;7.82;59.89;99833.63;6945671;28;20767;-80
2023/01/04 07:00:12;;;;;;;7.27;6.40;;;;;;;7.91;61.14;99836.16;6944445;28;20260;-76
2023/01/04 07:03:34;;;;;;;8.03;7.23;;;;;;;8.19;59.79;99847.50;6949758;28;20737;-78
2023/01/04 07:06:57;;;;;;;10.97;8.10;;;;;;;8.19;59.76;99847.50;6948273;28;20296;-78
2023/01/04 07:10:19;;;;;;;7.80;7.00;;;;;;;8.01;60.01;99838.72;6951639;28;20238;-80
2023/01/04 07:13:40;;;;;;;10.17;7.97;;;;;;;8.46;59.10;99831.09;6947810;28;20247;-80
2023/01/04 07:17:02;;;;;;;8.57;7.23;;;;;;;8.30;59.28;99823.88;6938644;28;20206;-78
2023/01/04 07:20:23;;;;;;;10.83;7.77;;;;;;;8.20;58.89;99814.28;6952533;28;20211;-77
2023/01/04 07:23:46;;;;;;;12.13;8.10;;;;;;;7.41;60.80;99842.50;6949145;28;20306;-75
2023/01/04 07:27:09;;;;;;;11.57;7.20;;;;;;;7.57;61.75;99840.75;6943236;28;20310;-81
2023/01/04 07:30:30;;;;;;;7.70;6.90;;;;;;;8.33;60.91;99838.81;6920977;28;20230;-78
2023/01/04 07:33:52;;;;;;;10.00;8.30;;;;;;;8.28;59.61;99823.19;6936763;28;20345;-76
2023/01/04 07:37:14;;;;;;;8.00;7.20;;;;;;;8.64;59.39;99821.88;6950626;28;20223;-80
2023/01/04 07:40:37;;;;;;;10.63;9.23;;;;;;;8.01;60.58;99814.56;6950332;28;20207;-77
2023/01/04 07:44:00;;;;;;;17.77;12.23;;;;;;;7.51;62.35;99829.81;6944135;28;20202;-76
2023/01/04 07:47:21;;;;;;;18.20;11.40;;;;;;;8.02;62.02;99829.66;6947598;28;20294;-77
2023/01/04 07:50:44;;;;;;;12.93;9.23;;;;;;;8.19;62.36;99788.41;6950715;28;20303;-78
2023/01/04 07:54:06;;;;;;;14.30;9.80;;;;;;;8.88;60.39;99815.63;6950455;28;20302;-77
2023/01/04 07:57:28;;;;;;;13.10;9.00;;;;;;;8.51;61.46;99809.94;6948463;28;20315;-78
2023/01/04 08:00:53;;;;;;;17.27;11.63;;;;;;;8.15;62.13;99806.69;6947954;28;20207;-77
2023/01/04 08:04:15;;;;;;;9.33;6.73;;;;;;;8.83;61.84;99793.81;6944879;28;20207;-77
2023/01/04 08:07:37;;;;;;;14.57;10.77;;;;;;;9.07;59.45;99799.97;6946478;28;20272;-76
2023/01/04 08:11:01;;;;;;;13.70;10.10;;;;;;;8.56;62.05;99804.91;6944580;28;20705;-78
2023/01/04 08:14:24;;;;;;;11.63;9.80;;;;;;;9.01;61.15;99803.34;6941207;28;20214;-77
2023/01/04 08:17:46;;;;;;;13.47;10.23;;;;;;;8.92;61.89;99800.84;6941342;28;20388;-77
2023/01/04 08:21:08;;;;;;;12.77;10.43;;;;;;;9.18;61.50;99792.41;6946295;28;20239;-78
2023/01/04 08:24:30;;;;;;;13.93;10.53;;;;;;;9.05;60.13;99773.22;6923622;28;20275;-77
2023/01/04 08:27:51;;;;;;;12.90;8.87;;;;;;;9.08;60.84;99774.75;6922419;28;20371;-77
2023/01/04 08:31:16;;;;;;;14.20;10.43;;;;;;;9.11;61.25;99769.84;6946630;28;20246;-77
2023/01/04 08:34:37;;;;;;;12.90;9.07;;;;;;;8.90;62.96;99778.66;6946153;28;20259;-77
2023/01/04 08:37:59;;;;;;;10.40;9.03;;;;;;;8.55;63.05;99771.81;6938639;28;20254;-77
2023/01/04 08:41:20;;;;;;;8.90;7.93;;;;;;;8.37;65.09;99764.94;6944981;28;20705;-77
2023/01/04 08:44:42;;;;;;;10.80;7.93;;;;;;;8.62;65.21;99761.22;6946110;28;20257;-77
2023/01/04 08:52:22;;;;;;;9.17;7.70;;;;;;;9.15;63.71;99746.16;6914456;28;20223;-77
2023/01/04 08:55:49;;;;;;;8.10;6.53;;;;;;;9.59;62.20;99693.47;6948327;28;20206;-77
2023/01/04 08:59:12;;;;;;;4.77;2.70;;;;;;;9.95;60.63;99681.94;6947374;28;20280;-77
2023/01/04 09:02:34;;;;;;;5.57;2.63;;;;;;;10.51;60.22;99713.81;6945548;28;20293;-77
2023/01/04 09:06:02;;;;;;;5.63;5.07;;;;;;;10.06;62.00;99719.28;6951388;28;20221;-77
2023/01/04 09:09:25;;;;;;;5.53;4.10;;;;;;;10.35;60.52;99660.09;6947675;28;20254;-77
2023/01/04 09:12:46;;;;;;;2.60;2.40;;;;;;;10.58;59.58;99698.59;6947461;28;20227;-77
2023/01/04 09:16:10;;;;;;;3.70;2.57;;;;;;;11.14;58.59;99710.63;6949518;28;20215;-77
2023/01/04 09:19:31;;;;;;;2.57;2.37;;;;;;;11.42;56.18;99703.53;6943500;28;20238;-77
2023/01/04 09:22:53;;;;;;;4.17;2.30;;;;;;;11.01;58.23;99710.44;6939220;28;20703;-77
2023/01/04 09:26:17;;;;;;;3.27;2.20;;;;;;;11.25;54.93;99691.25;6948649;28;20423;-76
2023/01/04 09:29:40;;;;;;;3.53;2.30;;;;;;;11.20;55.15;99728.78;6936278;28;20384;-77
2023/01/04 09:33:01;;;;;;;5.80;2.77;;;;;;;11.37;56.53;99711.38;6950691;28;20234;-78
2023/01/04 09:36:23;;;;;;;4.10;2.67;;;;;;;11.20;55.90;99723.38;6947147;28;20211;-78
2023/01/04 09:39:46;;;;;;;8.87;4.40;;;;;;;11.35;56.45;99716.13;6949201;28;20231;-77
2023/01/04 09:43:16;;;;;;;15.00;6.43;;;;;;;11.34;55.68;99698.25;6951503;28;20207;-77
2023/01/04 09:46:41;;;;;;;4.70;3.33;;;;;;;11.74;54.40;99717.47;6948032;28;20314;-76
2023/01/04 09:50:05;;;;;;;4.97;2.83;;;;;;;11.71;54.37;99700.81;6943558;28;20294;-77
2023/01/04 09:53:28;;;;;;;4.40;3.10;;;;;;;12.32;53.54;99701.03;6941828;28;20263;-77
2023/01/04 09:56:52;;;;;;;4.50;3.10;;;;;;;12.69;52.51;99698.00;6937640;28;20299;-76
2023/01/04 10:00:17;;;;;;;2.90;2.33;;;;;;;12.58;51.17;99703.94;6949433;28;20617;-75
2023/01/04 10:03:40;;;;;;;2.97;1.80;;;;;;;12.27;50.82;99670.22;6950029;28;20367;-76
2023/01/04 10:07:01;;;;;;;4.20;2.40;;;;;;;12.94;51.10;99712.78;6947750;28;20671;-79
2023/01/04 10:10:41;;;;;;;6.23;2.70;;;;;;;12.83;51.06;99688.97;6923481;28;20358;-77
2023/01/04 10:14:15;;;;;;;5.27;2.77;;;;;;;12.48;51.27;99679.13;6943094;28;20306;-77
2023/01/04 10:17:53;;;;;;;2.80;1.97;;;;;;;12.85;50.64;99686.03;6948829;28;20301;-76
2023/01/04 10:21:31;;;;;;;2.83;2.20;;;;;;;13.14;50.09;99675.00;6949678;28;20784;-77
2023/01/04 10:25:18;;;;;;;2.27;1.90;;;;;;;13.07;50.88;99666.00;6948732;28;20211;-77
2023/01/04 10:28:49;;;;;;;4.03;2.17;;;;;;;13.19;49.53;99653.56;6936842;28;20260;-76
2023/01/04 10:32:16;;;;;;;2.37;1.80;;;;;;;12.89;49.51;99633.19;6950899;28;20280;-81
2023/01/04 10:35:42;;;;;;;2.57;2.20;;;;;;;12.76;50.87;99641.22;6948348;28;20563;-79
2023/01/04 10:39:05;;;;;;;5.03;2.77;;;;;;;13.00;51.43;99651.59;6943112;28;20251;-78
2023/01/04 10:42:32;;;;;;;2.30;2.10;;;;;;;12.88;50.48;99647.75;6949498;28;20268;-79
2023/01/04 10:46:00;;;;;;;2.07;1.93;;;;;;;13.25;49.37;99633.81;6949475;28;20275;-82
2023/01/04 10:49:27;;;;;;;5.83;2.57;;;;;;;13.07;49.44;99614.56;6957221;28;20223;-77
2023/01/04 10:52:53;;;;;;;3.93;2.20;;;;;;;13.14;48.70;99640.66;6965022;28;20318;-76
2023/01/04 10:56:18;;;;;;;2.87;1.93;;;;;;;13.07;48.61;99618.13;6949085;28;20256;-78
2023/01/04 10:59:45;;;;;;;2.40;1.90;;;;;;;13.20;48.53;99623.59;6949078;28;20238;-79
2023/01/04 11:03:10;;;;;;;1.80;1.70;;;;;;;13.57;47.76;99635.81;6949143;28;20295;-77
2023/01/04 11:06:35;;;;;;;1.97;1.80;;;;;;;13.67;47.48;99614.56;6941919;28;20207;-77
2023/01/04 11:10:01;;;;;;;2.93;1.87;;;;;;;13.80;47.77;99618.13;6921934;28;20334;-79
2023/01/04 11:13:23;;;;;;;2.07;1.70;;;;;;;13.54;48.54;99607.25;6938443;28;20250;-78
2023/01/04 11:16:47;;;;;;;3.43;1.70;;;;;;;13.97;47.16;99589.59;6947017;28;20739;-77
2023/01/04 11:20:09;;;;;;;2.37;1.70;;;;;;;13.82;48.17;99617.94;6947179;28;20290;-77
2023/01/04 11:23:31;;;;;;;3.10;1.90;;;;;;;13.98;47.60;99591.25;6935784;28;20621;-77
2023/01/04 11:26:55;;;;;;;1.57;1.50;;;;;;;13.84;47.89;99596.88;6929276;28;20218;-79
2023/01/04 11:30:20;;;;;;;1.53;1.33;;;;;;;13.90;47.89;99587.91;6947873;28;20265;-78
2023/01/04 11:33:53;;;;;;;2.47;1.80;;;;;;;13.62;47.83;99579.16;6946093;28;20705;-78
2023/01/04 11:37:32;;;;;;;1.80;1.70;;;;;;;13.69;48.49;99574.56;6926644;28;20327;-77
2023/01/04 11:40:58;;;;;;;1.47;1.40;;;;;;;13.95;47.80;99571.88;6945541;28;20215;-77
2023/01/04 11:44:21;;;;;;;4.23;1.60;;;;;;;13.45;49.24;99569.72;6948051;28;20374;-77
2023/01/04 11:47:48;;;;;;;3.37;1.53;;;;;;;13.23;49.79;99554.66;6947048;28;20225;-77
2023/01/04 11:51:20;;;;;;;1.73;1.63;;;;;;;13.17;49.95;99569.00;6948329;28;20269;-78
2023/01/04 11:54:42;;;;;;;3.17;2.00;;;;;;;13.44;50.04;99549.91;6946047;28;20211;-75
2023/01/04 11:58:08;;;;;;;1.60;1.50;;;;;;;13.48;49.25;99555.75;6945674;28;20587;-76
2023/01/04 12:01:32;;;;;;;1.83;1.63;;;;;;;13.02;50.64;99565.59;6947406;28;20309;-76
2023/01/04 12:04:54;;;;;;;1.77;1.67;;;;;;;13.40;50.26;99559.47;6947707;28;20239;-76
2023/01/04 12:08:26;;;;;;;1.50;1.40;;;;;;;13.52;50.24;99562.44;6946882;28;20228;-77
2023/01/04 12:11:50;;;;;;;1.83;1.70;;;;;;;13.78;49.32;99551.63;6941639;28;20416;-76
2023/01/04 12:15:17;;;;;;;1.80;1.70;;;;;;;14.11;48.43;99561.44;6921075;28;20279;-77
2023/01/04 12:18:42;;;;;;;1.90;1.43;;;;;;;13.88;48.85;99555.63;6919607;28;20240;-77
2023/01/04 12:22:04;;;;;;;2.03;1.70;;;;;;;14.17;48.40;99557.88;6920290;28;20216;-79
2023/01/04 12:25:31;;;;;;;1.60;1.50;;;;;;;13.71;49.25;99553.50;6920116;28;20210;-77
2023/01/04 12:29:40;;;;;;;1.60;1.50;;;;;;;13.84;49.48;99537.25;6926472;28;20236;-77
2023/01/04 12:33:40;;;;;;;1.60;1.50;;;;;;;13.34;50.86;99559.47;6907251;28;20235;-76
2023/01/04 12:37:02;;;;;;;2.13;1.70;;;;;;;13.54;50.40;99541.38;6939492;28;20207;-76
2023/01/04 12:40:52;;;;;;;1.87;1.77;;;;;;;13.34;50.89;99537.81;6939675;28;20219;-76
2023/01/04 12:44:50;;;;;;;1.50;1.40;;;;;;;14.02;50.05;99537.44;6926537;28;20697;-76
2023/01/04 12:52:35;;;;;;;9.73;6.43;;;;;;;13.92;50.25;99528.91;6914576;28;20705;-77
2023/01/04 12:55:56;;;;;;;2.47;1.83;;;;;;;13.93;50.74;99533.28;6941340;28;20672;-76
2023/01/04 12:59:32;;;;;;;1.93;1.80;;;;;;;13.99;50.75;99527.03;6946080;28;20235;-77
2023/01/04 13:03:27;;;;;;;1.97;1.53;;;;;;;14.08;50.47;99523.06;6944064;28;20265;-77
2023/01/04 13:06:50;;;;;;;1.90;1.80;;;;;;;13.86;51.19;99510.78;6943668;28;20570;-77
2023/01/04 13:10:29;;;;;;;1.70;1.60;;;;;;;14.12;50.52;99517.03;6944949;28;20207;-77
2023/01/04 13:13:55;;;;;;;1.73;1.40;;;;;;;13.80;51.79;99498.06;6919346;28;20306;-77
2023/01/04 13:17:20;;;;;;;1.50;1.40;;;;;;;14.44;50.20;99502.59;6934412;28;20253;-77
2023/01/04 13:20:41;;;;;;;5.77;1.60;;;;;;;13.92;51.19;99507.22;6946163;28;20291;-77
2023/01/04 13:24:07;;;;;;;1.80;1.70;;;;;;;14.14;50.90;99486.94;6946732;28;20293;-77
2023/01/04 13:27:28;;;;;;;2.30;2.10;;;;;;;14.67;49.83;99489.34;6945658;28;20435;-77
2023/01/04 13:30:50;;;;;;;2.70;1.80;;;;;;;14.42;50.18;99469.41;6944018;28;20366;-78
2023/01/04 13:34:17;;;;;;;3.60;2.20;;;;;;;14.75;49.16;99477.44;6944834;28;20236;-77
2023/01/04 13:37:41;;;;;;;2.93;1.70;;;;;;;15.21;48.37;99481.56;6946065;28;20268;-77
2023/01/04 13:41:16;;;;;;;2.00;1.63;;;;;;;15.52;47.96;99476.16;6943670;28;20323;-77
2023/01/04 13:45:17;;;;;;;1.90;1.70;;;;;;;15.28;48.19;99468.78;6951203;28;20299;-77
2023/01/04 13:48:41;;;;;;;1.63;1.40;;;;;;;14.31;50.08;99467.34;6933455;28;20267;-77
2023/01/04 13:52:16;;;;;;;2.37;1.60;;;;;;;14.88;49.45;99452.94;6950552;28;20288;-77
2023/01/04 13:55:38;;;;;;;1.40;1.40;;;;;;;15.63;47.46;99436.56;6951130;28;20279;-77
2023/01/04 13:59:01;;;;;;;1.40;1.40;;;;;;;15.30;48.00;99463.13;6925730;28;20239;-77
2023/01/04 14:02:22;;;;;;;1.50;1.40;;;;;;;15.63;47.59;99453.69;6950744;28;20300;-77
2023/01/04 14:05:47;;;;;;;2.80;1.70;;;;;;;15.15;48.59;99440.88;6949145;28;20277;-77
2023/01/04 14:09:14;;;;;;;1.50;1.40;;;;;;;15.36;48.75;99451.41;6949744;28;20370;-78
2023/01/04 14:12:36;;;;;;;1.80;1.70;;;;;;;14.91;49.17;99434.31;6925212;28;20231;-77
2023/01/04 14:16:10;;;;;;;2.53;1.40;;;;;;;15.45;48.40;99448.19;6921523;28;20202;-77
2023/01/04 14:19:43;;;;;;;1.57;1.33;;;;;;;15.19;49.19;99444.81;6925676;28;20261;-77
2023/01/04 14:23:05;;;;;;;3.73;1.90;;;;;;;15.04;49.91;99447.00;6950931;28;20317;-78
2023/01/04 14:26:30;;;;;;;1.60;1.50;;;;;;;15.58;48.43;99433.69;6942235;28;20226;-77
2023/01/04 14:29:51;;;;;;;2.07;1.60;;;;;;;14.64;50.77;99450.97;6951402;28;20357;-78
2023/01/04 14:33:17;;;;;;;1.70;1.60;;;;;;;15.20;49.30;99446.47;6936821;28;20224;-78
2023/01/04 14:36:40;;;;;;;1.77;1.67;;;;;;;15.06;50.16;99445.72;6941905;28;20323;-78
2023/01/04 14:40:01;;;;;;;2.30;2.10;;;;;;;15.68;48.57;99432.13;6946964;28;20315;-77
2023/01/04 14:43:34;;;;;;;1.43;1.33;;;;;;;14.84;50.25;99429.97;6949893;28;20337;-78
2023/01/04 14:46:57;;;;;;;1.77;1.67;;;;;;;14.92;50.23;99432.44;6949436;28;20208;-76
2023/01/04 14:50:20;;;;;;;1.83;1.73;;;;;;;15.33;49.36;99436.38;6949865;28;20260;-77
2023/01/04 14:53:41;;;;;;;1.67;1.57;;;;;;;14.85;50.64;99447.91;6949685;28;20232;-77
2023/01/04 14:57:03;;;;;;;1.57;1.47;;;;;;;14.40;51.68;99449.78;6945241;28;20654;-77
2023/01/04 15:00:25;;;;;;;1.70;1.60;;;;;;;14.84;50.77;99441.69;6948435;28;20262;-78
2023/01/04 15:03:46;;;;;;;1.80;1.70;;;;;;;14.40;51.21;99416.41;6947520;28;20566;-78
2023/01/04 15:10:57;;;;;;;6.13;3.90;;;;;;;14.62;51.27;99407.75;7169234;27;21088;-77
2023/01/04 15:14:19;;;;;;;1.37;1.37;;;;;;;14.63;51.10;99420.25;7169158;27;20282;-78
2023/01/04 15:17:41;;;;;;;1.70;1.60;;;;;;;14.77;51.09;99391.19;7168034;27;20320;-79
2023/01/04 15:21:02;;;;;;;4.10;2.83;;;;;;;14.95;50.35;99389.41;7124602;27;20335;-77
2023/01/04 15:24:24;;;;;;;16.70;11.23;;;;;;;15.24;49.89;99399.66;7111067;27;20240;-77
2023/01/04 15:27:47;;;;;;;45.27;25.30;;;;;;;14.65;51.17;99391.03;7109380;27;20307;-79
2023/01/04 15:31:10;;;;;;;39.70;27.50;;;;;;;14.98;50.11;99377.28;7128719;27;20341;-76
2023/01/04 15:34:31;;;;;;;1.63;1.60;;;;;;;14.58;50.91;99389.41;7119127;27;20573;-75
2023/01/04 15:37:53;;;;;;;4.30;2.90;;;;;;;14.16;52.39;99382.66;7110767;27;20730;-78
2023/01/04 15:42:57;;;;;;;2.10;2.00;;;;;;;14.70;51.49;99382.25;7125238;27;20270;-76
2023/01/04 15:44:59;;;;;;;1.47;1.37;;;;;;;14.98;50.14;99371.84;7128071;27;20205;-77
2023/01/04 15:48:20;;;;;;;2.60;1.60;;;;;;;14.83;51.20;99380.28;7127070;27;20975;-77
2023/01/04 15:51:42;;;;;;;1.40;1.30;;;;;;;14.94;50.36;99373.31;7139129;27;20298;-78
2023/01/04 15:55:04;;;;;;;1.20;1.20;;;;;;;13.99;53.20;99377.91;7137464;27;20309;-78
2023/01/04 15:58:25;;;;;;;1.77;1.23;;;;;;;14.47;51.79;99357.53;7137341;27;20282;-77
2023/01/04 16:01:48;;;;;;;1.50;1.40;;;;;;;14.75;51.37;99369.66;7136531;27;20819;-78
2023/01/04 16:05:10;;;;;;;2.23;2.03;;;;;;;15.08;50.74;99378.44;7122466;27;20196;-78
2023/01/04 16:08:31;;;;;;;1.47;1.40;;;;;;;15.13;50.26;99383.19;7112384;27;20228;-77
2023/01/04 16:15:32;;;;;;;1.83;1.50;;;;;;;14.97;50.63;99354.69;7137823;27;20196;-78
2023/01/04 16:18:56;;;;;;;2.03;1.60;;;;;;;14.88;50.98;99366.06;7129967;27;20846;-77
2023/01/04 16:22:17;;;;;;;2.30;2.10;;;;;;;15.41;49.97;99361.91;7139586;27;20293;-77
2023/01/04 16:25:39;;;;;;;3.87;2.17;;;;;;;15.37;49.55;99368.84;7088956;27;20225;-77
2023/01/04 16:29:01;;;;;;;2.03;1.50;;;;;;;14.99;50.34;99349.88;7131526;27;20290;-78
2023/01/04 16:32:23;;;;;;;1.20;1.20;;;;;;;15.22;50.17;99377.28;7137078;27;20657;-81
2023/01/04 16:36:00;;;;;;;1.63;1.40;;;;;;;15.27;49.66;99347.56;7116944;27;20259;-83
2023/01/04 16:39:22;;;;;;;1.87;1.77;;;;;;;15.45;49.71;99358.53;7027978;28;20713;-81
2023/01/04 16:42:49;;;;;;;2.17;1.57;;;;;;;15.53;48.30;99294.91;7007815;28;20231;-79
2023/01/04 16:46:17;;;;;;;2.03;1.77;;;;;;;15.62;48.95;99343.31;7000456;28;20226;-77
2023/01/04 16:49:39;;;;;;;1.60;1.50;;;;;;;15.17;50.26;99343.69;7000610;28;20229;-77
2023/01/04 16:53:02;;;;;;;1.83;1.50;;;;;;;15.11;50.45;99344.56;7000278;28;20211;-78
2023/01/04 16:56:24;;;;;;;1.83;1.70;;;;;;;15.52;50.50;99342.16;6999683;28;20275;-76
2023/01/04 16:59:46;;;;;;;2.27;2.00;;;;;;;15.86;50.02;99334.25;7002353;28;20222;-77
2023/01/04 17:03:07;;;;;;;1.50;1.40;;;;;;;15.68;49.68;99342.41;7005333;28;20384;-79
2023/01/04 17:06:30;;;;;;;1.77;1.43;;;;;;;16.22;48.87;99349.78;7028319;28;20207;-76
2023/01/04 17:09:53;;;;;;;2.00;1.70;;;;;;;15.78;49.58;99344.59;7016166;28;20264;-76